Time;durP1;ratioP1;P1;durP2;ratioP2;P2;SDS_P1;SDS_P2;PMS_P1;PMS_P2;Temp;Humidity;BMP_temperature;BMP_pressure;BME280_temperature;BME280_humidity;BME280_pressure;Samples;Min_cycle;Max_cycle;Signal;HPM_P1;HPM_P2
2022/10/27 00:00:38;;;;;;;13.90;7.80;;;;;;;12.27;56.35;95984.56;5034574;28;20417;-76
2022/10/27 00:03:04;;;;;;;21.80;8.20;;;;;;;13.13;55.81;96106.25;5048672;28;20048;-78
2022/10/27 00:05:29;;;;;;;16.92;7.93;;;;;;;12.88;56.11;96080.41;5049322;28;20507;-77
2022/10/27 00:07:55;;;;;;;23.60;8.73;;;;;;;13.28;55.67;96132.09;5049803;28;20717;-78
2022/10/27 00:10:20;;;;;;;31.50;9.52;;;;;;;13.29;55.32;96131.84;5050148;28;20037;-78
2022/10/27 00:12:46;;;;;;;26.52;8.63;;;;;;;13.21;55.57;96113.72;5047943;28;20144;-78
2022/10/27 00:15:12;;;;;;;21.08;8.18;;;;;;;13.56;55.71;96171.53;5047736;28;20124;-78
2022/10/27 00:17:39;;;;;;;20.48;8.90;;;;;;;13.38;55.54;96126.78;5048283;28;20059;-78
2022/10/27 00:20:05;;;;;;;18.52;8.35;;;;;;;13.65;55.79;96163.81;5049876;28;20049;-78
2022/10/27 00:22:31;;;;;;;20.40;8.77;;;;;;;13.48;55.71;96142.75;5035410;28;20075;-78
2022/10/27 00:24:56;;;;;;;17.77;7.80;;;;;;;12.53;55.55;95993.34;5043461;28;20072;-78
2022/10/27 00:27:22;;;;;;;19.67;8.18;;;;;;;13.63;56.00;96164.06;5033464;28;20045;-78
2022/10/27 00:29:47;;;;;;;18.33;8.90;;;;;;;13.35;55.86;96154.75;5049366;28;20466;-78
2022/10/27 00:32:13;;;;;;;21.75;7.35;;;;;;;13.51;55.85;96171.53;5046809;28;20147;-79
2022/10/27 00:34:38;;;;;;;16.75;7.50;;;;;;;13.14;56.10;96116.66;5033933;28;20071;-78
2022/10/27 00:37:04;;;;;;;15.40;7.68;;;;;;;13.33;56.15;96148.09;5023918;28;20091;-78
2022/10/27 00:39:29;;;;;;;24.00;8.77;;;;;;;13.36;55.61;96143.03;5033650;28;20124;-78
2022/10/27 00:41:54;;;;;;;26.70;8.63;;;;;;;13.42;55.75;96155.28;5034335;28;20041;-78
2022/10/27 00:44:29;;;;;;;24.60;7.70;;;;;;;13.59;56.18;96183.50;5034066;28;20060;-79
2022/10/27 00:46:55;;;;;;;17.48;7.22;;;;;;;13.28;56.10;96138.22;5033771;28;20044;-78
2022/10/27 00:49:25;;;;;;;20.42;7.60;;;;;;;13.59;55.76;96188.84;5048849;28;20048;-78
2022/10/27 00:51:56;;;;;;;15.00;8.10;;;;;;;13.27;55.44;96135.84;5048648;28;20083;-78
2022/10/27 00:54:24;;;;;;;16.60;6.85;;;;;;;12.97;54.79;96094.78;5044472;28;20055;-78
2022/10/27 00:56:51;;;;;;;16.33;7.53;;;;;;;13.18;54.54;96116.13;5048762;28;20498;-78
2022/10/27 00:59:17;;;;;;;23.20;7.55;;;;;;;13.53;54.37;96166.72;5047496;28;20075;-78
2022/10/27 01:01:43;;;;;;;17.30;7.80;;;;;;;13.44;54.64;96152.34;5030964;28;20738;-78
2022/10/27 01:04:10;;;;;;;17.15;7.50;;;;;;;13.40;54.23;96154.75;5036053;28;20053;-78
2022/10/27 01:06:36;;;;;;;18.52;7.65;;;;;;;13.72;53.74;96191.78;5047199;28;20074;-78
2022/10/27 01:09:02;;;;;;;20.85;8.30;;;;;;;13.66;54.00;96186.69;5048163;28;20487;-78
2022/10/27 01:11:28;;;;;;;20.95;8.95;;;;;;;13.49;54.17;96158.50;5047507;28;20132;-78
2022/10/27 01:13:53;;;;;;;21.48;9.57;;;;;;;13.25;54.19;96127.31;5048333;28;20163;-77
2022/10/27 01:16:34;;;;;;;24.30;9.20;;;;;;;13.67;54.18;96202.44;5032993;28;20136;-77
2022/10/27 01:19:09;;;;;;;18.88;8.15;;;;;;;13.66;54.35;96197.38;5032763;28;20041;-77
2022/10/27 01:21:49;;;;;;;15.85;7.65;;;;;;;13.63;54.83;96204.06;5048702;28;20033;-78
2022/10/27 01:24:51;;;;;;;15.15;7.30;;;;;;;13.60;54.86;96201.09;5032793;28;20140;-78
2022/10/27 01:27:44;;;;;;;17.83;7.35;;;;;;;13.58;54.70;96203.25;5048366;28;20154;-78
2022/10/27 01:30:22;;;;;;;16.63;6.07;;;;;;;13.19;54.90;96150.50;5048529;28;20725;-78
2022/10/27 01:33:21;;;;;;;15.50;6.43;;;;;;;13.49;55.05;96201.13;5048637;28;20080;-78
2022/10/27 01:35:49;;;;;;;18.23;7.50;;;;;;;13.50;54.79;96212.59;5034241;28;20044;-79
2022/10/27 01:38:50;;;;;;;23.77;7.75;;;;;;;13.44;55.06;96205.63;5048244;28;20039;-78
2022/10/27 01:41:29;;;;;;;24.13;9.25;;;;;;;13.00;54.69;96150.19;5048286;28;20041;-78
2022/10/27 01:44:00;;;;;;;28.48;10.57;;;;;;;13.03;54.86;96170.16;5048409;28;20075;-78
2022/10/27 01:46:26;;;;;;;19.67;8.32;;;;;;;13.23;54.44;96193.38;5048106;28;20043;-77
2022/10/27 01:48:52;;;;;;;23.95;8.45;;;;;;;13.41;54.08;96201.66;5046953;28;20033;-77
2022/10/27 01:51:18;;;;;;;25.92;8.85;;;;;;;13.22;54.45;96167.78;5043457;28;20052;-76
2022/10/27 01:53:47;;;;;;;26.77;8.23;;;;;;;13.46;54.72;96195.50;5047796;28;20032;-76
2022/10/27 01:56:31;;;;;;;22.30;7.68;;;;;;;13.45;54.62;96194.72;5029516;28;20048;-76
2022/10/27 01:58:59;;;;;;;24.55;8.60;;;;;;;13.41;54.57;96193.66;5048248;28;20526;-76
2022/10/27 02:01:53;;;;;;;27.52;7.60;;;;;;;13.41;54.88;96195.53;5040973;28;20041;-76
2022/10/27 02:04:21;;;;;;;19.60;7.18;;;;;;;13.37;54.81;96197.91;5053043;28;20088;-76
2022/10/27 02:07:08;;;;;;;20.52;8.45;;;;;;;13.38;54.88;96196.84;5052527;28;20037;-75
2022/10/27 02:09:54;;;;;;;22.02;8.55;;;;;;;13.33;55.10;96191.53;5034799;28;20029;-75
2022/10/27 02:12:37;;;;;;;18.95;7.25;;;;;;;12.56;55.52;96074.53;5057990;28;20049;-75
2022/10/27 02:15:20;;;;;;;20.20;7.75;;;;;;;13.29;56.39;96192.31;5058388;28;20132;-75
2022/10/27 02:17:48;;;;;;;18.63;7.45;;;;;;;12.93;56.40;96140.84;5059979;28;20028;-75
2022/10/27 02:20:22;;;;;;;16.13;7.05;;;;;;;13.20;56.56;96193.91;5056576;28;20101;-75
2022/10/27 02:22:51;;;;;;;19.15;8.07;;;;;;;12.91;56.19;96148.28;5056187;28;20552;-75
2022/10/27 02:25:20;;;;;;;16.00;6.47;;;;;;;12.68;56.38;96107.00;5057767;28;20040;-76
2022/10/27 02:27:48;;;;;;;18.55;7.47;;;;;;;13.09;56.33;96174.41;5056707;28;20507;-75
2022/10/27 02:30:14;;;;;;;15.57;7.60;;;;;;;12.64;56.42;96106.75;5046546;28;20029;-76
2022/10/27 02:32:40;;;;;;;24.80;7.63;;;;;;;12.68;56.47;96118.44;5046114;28;20048;-76
2022/10/27 02:35:09;;;;;;;24.20;7.38;;;;;;;12.96;56.53;96175.75;5029484;28;20064;-76
2022/10/27 02:37:38;;;;;;;21.88;7.57;;;;;;;12.73;56.50;96149.59;5029251;28;20049;-76
2022/10/27 02:40:05;;;;;;;15.95;6.65;;;;;;;12.96;56.36;96167.75;5057087;28;20529;-75
2022/10/27 02:42:30;;;;;;;23.05;7.25;;;;;;;12.79;55.74;96139.75;5055116;28;20047;-75
2022/10/27 02:44:56;;;;;;;16.65;7.20;;;;;;;13.16;55.75;96195.50;5031789;28;20139;-76
2022/10/27 02:47:21;;;;;;;21.95;7.10;;;;;;;12.96;55.77;96166.94;5049428;28;20040;-76
2022/10/27 02:49:46;;;;;;;18.48;7.05;;;;;;;12.91;55.60;96166.94;5030228;28;20041;-76
2022/10/27 02:52:12;;;;;;;18.80;6.47;;;;;;;13.01;56.71;96229.00;5029633;28;20111;-76
2022/10/27 02:54:38;;;;;;;17.35;6.82;;;;;;;13.12;56.48;96230.59;5035071;28;20036;-76
2022/10/27 02:57:04;;;;;;;26.52;7.72;;;;;;;13.13;56.40;96226.91;5052087;28;20080;-75
2022/10/27 02:59:29;;;;;;;17.73;6.85;;;;;;;12.98;55.96;96208.22;5051766;28;20071;-76
2022/10/27 03:01:55;;;;;;;20.80;7.40;;;;;;;12.99;55.26;96203.69;5031758;28;20534;-76
2022/10/27 03:04:20;;;;;;;23.25;7.03;;;;;;;13.07;55.28;96221.81;5029387;28;20531;-75
2022/10/27 03:06:46;;;;;;;25.02;8.57;;;;;;;12.95;55.72;96208.75;5035537;28;20033;-76
2022/10/27 03:09:11;;;;;;;18.38;7.60;;;;;;;12.58;55.68;96150.38;5049832;28;20120;-76
2022/10/27 03:11:37;;;;;;;16.52;7.13;;;;;;;13.10;56.10;96232.75;5021925;28;20116;-76
2022/10/27 03:14:02;;;;;;;16.88;6.72;;;;;;;13.02;55.70;96222.63;5044726;28;20037;-77
2022/10/27 03:16:27;;;;;;;15.48;8.02;;;;;;;13.06;56.19;96238.84;5034365;28;20086;-76
2022/10/27 03:18:53;;;;;;;20.50;8.00;;;;;;;12.77;55.80;96219.88;5048942;28;20041;-76
2022/10/27 03:21:18;;;;;;;14.77;7.78;;;;;;;12.51;56.06;96239.47;5030990;28;20515;-77
2022/10/27 03:23:44;;;;;;;24.80;8.65;;;;;;;11.90;56.64;96164.72;5049142;28;20396;-76
2022/10/27 03:26:09;;;;;;;17.80;9.05;;;;;;;12.47;56.33;96233.88;5051289;28;20037;-76
2022/10/27 03:28:35;;;;;;;16.30;7.75;;;;;;;12.34;56.14;96199.75;5050147;28;20462;-76
2022/10/27 03:31:02;;;;;;;25.90;9.32;;;;;;;12.06;56.33;96168.22;5051738;28;20076;-76
2022/10/27 03:33:28;;;;;;;24.92;9.52;;;;;;;12.20;56.51;96203.94;5032973;28;20040;-76
2022/10/27 03:35:53;;;;;;;19.50;9.20;;;;;;;12.71;56.14;96251.00;5035266;28;20055;-76
2022/10/27 03:38:19;;;;;;;16.05;8.00;;;;;;;12.45;55.82;96212.03;5035851;28;20127;-76
2022/10/27 03:40:44;;;;;;;14.68;8.02;;;;;;;12.31;56.03;96177.13;5035888;28;20087;-76
2022/10/27 03:43:10;;;;;;;20.00;8.55;;;;;;;12.69;56.74;96253.13;5032618;28;20127;-76
2022/10/27 03:45:36;;;;;;;15.88;8.00;;;;;;;12.68;56.41;96248.84;5031656;28;20127;-76
2022/10/27 03:48:03;;;;;;;16.63;8.48;;;;;;;12.72;56.63;96251.81;5033835;28;20048;-76
2022/10/27 03:50:29;;;;;;;16.08;7.80;;;;;;;12.70;56.92;96249.41;5050375;28;20041;-76
2022/10/27 03:52:55;;;;;;;22.85;8.00;;;;;;;12.29;57.11;96184.56;5050799;28;20033;-76
2022/10/27 03:55:21;;;;;;;15.20;7.45;;;;;;;12.27;57.09;96178.72;5050398;28;20481;-76
2022/10/27 03:57:48;;;;;;;22.33;8.00;;;;;;;12.28;57.21;96179.53;5050458;28;20048;-76
2022/10/27 04:00:14;;;;;;;21.50;8.52;;;;;;;12.73;57.31;96250.75;5047057;28;20044;-75
2022/10/27 04:02:39;;;;;;;21.33;9.07;;;;;;;12.35;57.55;96180.88;5031757;28;20087;-75
2022/10/27 04:05:05;;;;;;;29.45;8.60;;;;;;;12.42;57.72;96199.28;5032364;28;20132;-75
2022/10/27 04:07:32;;;;;;;18.05;8.20;;;;;;;12.66;57.44;96235.00;5050114;28;20025;-76
2022/10/27 04:09:57;;;;;;;15.38;7.68;;;;;;;12.59;57.73;96228.31;5045873;28;20465;-75
2022/10/27 04:12:23;;;;;;;23.20;7.47;;;;;;;12.47;57.42;96201.13;5025924;28;20128;-76
2022/10/27 04:14:49;;;;;;;22.38;8.20;;;;;;;12.54;57.35;96209.69;5031527;28;20051;-76
2022/10/27 04:17:16;;;;;;;18.23;8.10;;;;;;;12.62;57.58;96233.94;5022326;28;20419;-75
2022/10/27 04:19:42;;;;;;;27.85;8.77;;;;;;;12.77;57.48;96251.81;5037275;28;20120;-77
2022/10/27 04:22:07;;;;;;;21.83;8.50;;;;;;;12.41;57.53;96194.19;5021148;28;20144;-77
2022/10/27 04:24:33;;;;;;;18.48;7.65;;;;;;;11.60;57.62;96070.41;5037766;28;20040;-77
2022/10/27 04:26:58;;;;;;;20.15;7.57;;;;;;;12.42;57.89;96199.28;5019619;28;20051;-75
2022/10/27 04:29:23;;;;;;;19.70;8.45;;;;;;;12.33;57.84;96183.00;5030981;28;20479;-77
2022/10/27 04:31:49;;;;;;;23.60;7.95;;;;;;;12.74;57.60;96244.34;5011215;28;20048;-77
2022/10/27 04:34:14;;;;;;;18.73;8.82;;;;;;;12.81;57.94;96258.22;5010705;28;20060;-77
2022/10/27 04:36:40;;;;;;;28.83;8.93;;;;;;;12.43;58.00;96208.84;5033341;28;20048;-77
2022/10/27 04:39:06;;;;;;;29.65;10.80;;;;;;;12.81;57.95;96262.75;5036680;28;20048;-78
2022/10/27 04:41:31;;;;;;;24.10;9.82;;;;;;;12.68;57.97;96243.53;5000356;28;20128;-78
2022/10/27 04:43:57;;;;;;;31.17;10.45;;;;;;;12.29;58.01;96187.22;5013930;28;20095;-78
2022/10/27 04:46:22;;;;;;;33.80;10.93;;;;;;;12.40;58.10;96224.53;5025205;28;20488;-78
2022/10/27 04:48:48;;;;;;;27.85;10.90;;;;;;;12.59;58.69;96250.41;5022796;28;20045;-78
2022/10/27 04:51:14;;;;;;;38.00;11.45;;;;;;;12.74;58.41;96269.09;5034821;28;20144;-78
2022/10/27 04:53:39;;;;;;;26.58;12.13;;;;;;;12.59;58.58;96249.59;5027348;28;20051;-78
2022/10/27 04:56:05;;;;;;;34.33;11.73;;;;;;;12.70;58.72;96272.56;5004048;28;20108;-77
2022/10/27 04:58:31;;;;;;;25.58;10.07;;;;;;;12.24;58.61;96200.50;5016127;28;20040;-78
2022/10/27 05:00:56;;;;;;;29.95;11.23;;;;;;;12.29;58.79;96213.03;5011341;28;20538;-78
2022/10/27 05:03:21;;;;;;;32.10;11.23;;;;;;;12.35;58.62;96222.66;5011247;28;20046;-79
2022/10/27 05:05:47;;;;;;;24.13;11.05;;;;;;;12.55;58.68;96265.31;5013318;28;20820;-79
2022/10/27 05:08:13;;;;;;;30.45;10.88;;;;;;;12.27;58.36;96226.59;5000037;28;20120;-79
2022/10/27 05:10:38;;;;;;;30.52;11.90;;;;;;;12.67;58.08;96287.16;5010426;28;20567;-78
2022/10/27 05:13:04;;;;;;;40.72;16.13;;;;;;;12.47;58.07;96265.00;5010796;28;20084;-80
2022/10/27 05:15:30;;;;;;;41.05;16.92;;;;;;;12.67;57.63;96302.34;5006138;28;20133;-84
2022/10/27 05:17:55;;;;;;;33.70;15.38;;;;;;;11.85;57.56;96178.75;4992415;28;20045;-85
2022/10/27 05:20:21;;;;;;;41.67;17.15;;;;;;;12.66;57.76;96311.41;4986308;28;20057;-79
2022/10/27 05:22:47;;;;;;;33.92;16.17;;;;;;;12.48;58.07;96295.88;5001276;28;20045;-79
2022/10/27 05:25:13;;;;;;;34.63;16.35;;;;;;;12.51;58.30;96313.97;5002731;28;20448;-80
2022/10/27 05:27:39;;;;;;;32.38;13.82;;;;;;;12.49;58.42;96321.41;4997613;28;20047;-79
2022/10/27 05:30:05;;;;;;;38.67;13.63;;;;;;;11.99;57.96;96245.56;5007893;28;20053;-79
2022/10/27 05:32:31;;;;;;;27.58;13.02;;;;;;;11.77;58.86;96244.88;4997230;28;20061;-79
2022/10/27 05:34:56;;;;;;;31.70;12.13;;;;;;;12.42;58.35;96334.94;4996937;28;20053;-79
2022/10/27 05:37:22;;;;;;;30.75;11.77;;;;;;;12.16;58.33;96301.25;5009648;28;20053;-79
2022/10/27 05:39:47;;;;;;;22.92;10.80;;;;;;;12.10;58.56;96320.88;4993739;28;20053;-79
2022/10/27 05:42:13;;;;;;;29.73;10.07;;;;;;;11.74;58.43;96270.13;5012063;28;20045;-79
2022/10/27 05:44:38;;;;;;;21.63;9.65;;;;;;;11.98;58.22;96305.09;5005970;28;20477;-79
2022/10/27 05:47:04;;;;;;;29.70;9.98;;;;;;;12.16;58.47;96363.22;5007861;28;20115;-79
2022/10/27 05:49:29;;;;;;;23.98;10.02;;;;;;;11.87;58.09;96308.75;5010084;28;20045;-80
2022/10/27 05:51:55;;;;;;;21.15;8.57;;;;;;;11.39;57.84;96230.72;4995646;28;20034;-81
2022/10/27 05:54:20;;;;;;;22.67;8.80;;;;;;;12.14;57.54;96333.41;4998993;28;20127;-80
2022/10/27 05:56:48;;;;;;;31.30;9.93;;;;;;;11.49;57.71;96232.69;4992046;28;20393;-79
2022/10/27 05:59:14;;;;;;;25.70;10.30;;;;;;;11.76;58.30;96309.69;5012198;28;20053;-79
2022/10/27 06:01:39;;;;;;;27.95;9.95;;;;;;;11.78;58.80;96331.53;4992024;28;20053;-82
2022/10/27 06:04:05;;;;;;;25.00;9.35;;;;;;;11.95;58.70;96358.78;5025860;28;20057;-83
2022/10/27 06:06:30;;;;;;;27.85;10.02;;;;;;;12.20;58.19;96382.13;5006074;28;20044;-81
2022/10/27 06:08:56;;;;;;;20.42;9.63;;;;;;;12.22;58.27;96372.81;5030979;28;20057;-84
2022/10/27 06:11:21;;;;;;;35.30;10.88;;;;;;;11.56;58.65;96260.63;5026368;28;20046;-77
2022/10/27 06:13:51;;;;;;;29.25;10.55;;;;;;;11.80;58.81;96293.00;5012520;28;20053;-77
2022/10/27 06:16:20;;;;;;;27.10;11.77;;;;;;;12.13;59.03;96345.09;5019112;28;20051;-78
2022/10/27 06:18:46;;;;;;;27.35;10.82;;;;;;;12.19;58.97;96375.22;5025794;28;20087;-79
2022/10/27 06:21:12;;;;;;;33.20;11.82;;;;;;;12.01;59.65;96349.00;5025418;28;20215;-78
2022/10/27 06:23:39;;;;;;;29.70;10.35;;;;;;;11.88;58.83;96315.66;5019699;28;20139;-78
2022/10/27 06:26:04;;;;;;;34.30;10.27;;;;;;;11.93;58.73;96331.66;5029666;28;20045;-78
2022/10/27 06:28:30;;;;;;;31.95;11.85;;;;;;;12.21;58.68;96394.34;5027481;28;20048;-78
2022/10/27 06:30:55;;;;;;;24.25;11.65;;;;;;;11.97;58.74;96357.50;5031453;28;20052;-77
2022/10/27 06:33:21;;;;;;;31.50;12.73;;;;;;;12.05;58.65;96353.56;5032680;28;20053;-78
2022/10/27 06:35:46;;;;;;;32.17;13.27;;;;;;;11.82;58.81;96298.88;5026690;28;20037;-78
2022/10/27 06:38:15;;;;;;;27.98;12.32;;;;;;;12.54;58.49;96399.41;5031679;28;20048;-77
2022/10/27 06:40:44;;;;;;;32.72;12.43;;;;;;;12.21;58.00;96349.94;5018761;28;20048;-78
2022/10/27 06:43:12;;;;;;;30.23;13.40;;;;;;;12.29;58.37;96365.44;5036699;28;20160;-78
2022/10/27 06:45:38;;;;;;;36.63;14.27;;;;;;;12.58;58.20;96405.84;5032451;28;20103;-77
2022/10/27 06:48:07;;;;;;;36.90;14.88;;;;;;;12.66;58.18;96404.56;5016012;28;20867;-79
2022/10/27 06:50:33;;;;;;;45.60;16.60;;;;;;;12.47;57.71;96372.22;5011185;28;20439;-82
2022/10/27 06:53:02;;;;;;;41.65;15.45;;;;;;;12.64;57.26;96372.06;5014425;28;20673;-80
2022/10/27 06:55:28;;;;;;;30.75;15.52;;;;;;;12.04;56.89;96260.75;5019546;28;20080;-80
2022/10/27 06:57:53;;;;;;;36.90;14.27;;;;;;;11.98;56.45;96236.78;5016160;28;20053;-79
2022/10/27 07:00:20;;;;;;;32.83;13.85;;;;;;;12.93;56.21;96367.16;5012103;28;20040;-80
2022/10/27 07:02:46;;;;;;;39.10;15.50;;;;;;;13.17;56.10;96383.53;5020748;28;20053;-82
2022/10/27 07:05:12;;;;;;;48.55;15.35;;;;;;;12.68;55.60;96306.59;5013739;28;20049;-84
2022/10/27 07:07:38;;;;;;;33.55;13.40;;;;;;;12.64;55.44;96290.38;5007259;28;20087;-78
2022/10/27 07:10:06;;;;;;;42.58;14.65;;;;;;;13.42;55.38;96404.97;4999578;28;20037;-78
2022/10/27 07:12:31;;;;;;;38.72;13.57;;;;;;;13.18;55.12;96350.53;4969777;28;20049;-79
2022/10/27 07:14:57;;;;;;;33.53;13.75;;;;;;;13.02;55.21;96353.09;4994327;28;20649;-80
2022/10/27 07:17:22;;;;;;;36.10;14.18;;;;;;;13.42;55.11;96415.63;5010453;28;20048;-80
2022/10/27 07:19:48;;;;;;;42.80;14.00;;;;;;;13.21;55.34;96384.63;5014078;28;20041;-79
2022/10/27 07:22:13;;;;;;;35.65;13.48;;;;;;;13.25;55.07;96373.19;5015088;28;20087;-80
2022/10/27 07:24:39;;;;;;;26.75;12.07;;;;;;;13.58;54.97;96419.91;5013104;28;20132;-79
2022/10/27 07:27:04;;;;;;;25.95;12.43;;;;;;;13.29;54.87;96402.75;4997738;28;20052;-80
2022/10/27 07:29:29;;;;;;;31.77;13.32;;;;;;;13.11;55.28;96383.50;4998827;28;20049;-80
2022/10/27 07:31:55;;;;;;;37.75;12.55;;;;;;;12.86;55.34;96331.97;4997471;28;20049;-79
2022/10/27 07:34:20;;;;;;;35.38;12.23;;;;;;;13.06;55.62;96386.13;4998156;28;20052;-80
2022/10/27 07:36:46;;;;;;;30.05;13.27;;;;;;;13.03;55.15;96368.03;5006511;28;20073;-80
2022/10/27 07:39:11;;;;;;;27.88;12.88;;;;;;;13.45;54.92;96433.75;5009404;28;20128;-80
2022/10/27 07:41:38;;;;;;;33.47;12.48;;;;;;;12.93;55.00;96351.97;5010307;28;20110;-80
2022/10/27 07:44:03;;;;;;;31.50;12.60;;;;;;;13.46;55.14;96438.00;4993282;28;20156;-79
2022/10/27 07:46:29;;;;;;;39.75;12.30;;;;;;;13.42;54.78;96408.44;5014607;28;20119;-80
2022/10/27 07:48:54;;;;;;;31.10;12.10;;;;;;;12.99;54.41;96332.31;4995549;28;20453;-79
2022/10/27 07:51:20;;;;;;;30.83;15.32;;;;;;;13.51;54.56;96414.03;4993854;28;20052;-78
2022/10/27 07:53:45;;;;;;;33.95;13.18;;;;;;;12.98;54.39;96329.91;5006917;28;20044;-82
2022/10/27 07:56:11;;;;;;;26.35;11.25;;;;;;;13.38;54.24;96393.22;4993199;28;20121;-81
2022/10/27 07:58:36;;;;;;;26.52;10.80;;;;;;;13.12;54.28;96353.13;4994349;28;20546;-80
2022/10/27 08:01:04;;;;;;;23.05;11.20;;;;;;;13.39;54.33;96416.13;4982922;28;20868;-78
2022/10/27 08:03:30;;;;;;;22.95;11.65;;;;;;;13.61;54.09;96439.94;5018613;28;20052;-78
2022/10/27 08:06:01;;;;;;;28.25;12.13;;;;;;;13.49;54.60;96430.31;5015872;28;20522;-79
2022/10/27 08:08:28;;;;;;;23.33;11.40;;;;;;;13.29;54.50;96390.25;5028719;28;20216;-79
2022/10/27 08:10:53;;;;;;;21.92;11.27;;;;;;;12.98;54.77;96348.53;5012840;28;20032;-78
2022/10/27 08:13:18;;;;;;;20.98;9.57;;;;;;;13.56;54.55;96421.25;5029253;28;20037;-79
2022/10/27 08:15:44;;;;;;;21.88;8.23;;;;;;;13.59;54.42;96426.06;5014469;28;20035;-79
2022/10/27 08:18:10;;;;;;;16.42;8.13;;;;;;;13.76;54.32;96426.66;5016463;28;20071;-79
2022/10/27 08:20:44;;;;;;;18.90;6.97;;;;;;;13.19;54.28;96363.59;5025476;28;20815;-78
2022/10/27 08:23:12;;;;;;;27.95;8.75;;;;;;;13.62;54.48;96434.34;5030631;28;20157;-80
2022/10/27 08:25:38;;;;;;;36.08;8.82;;;;;;;13.75;54.53;96439.16;5034106;28;20045;-79
2022/10/27 08:28:05;;;;;;;22.60;7.90;;;;;;;13.39;54.05;96373.50;5028658;28;20076;-79
2022/10/27 08:30:32;;;;;;;19.13;7.38;;;;;;;13.77;53.67;96429.06;5033658;28;20518;-80
2022/10/27 08:33:00;;;;;;;19.05;8.52;;;;;;;13.75;53.70;96404.50;5011100;28;20045;-80
2022/10/27 08:35:27;;;;;;;21.88;7.75;;;;;;;13.08;53.56;96297.97;5034168;28;20063;-80
2022/10/27 08:37:59;;;;;;;21.05;8.27;;;;;;;13.97;52.91;96428.28;5033628;28;20066;-80
2022/10/27 08:40:32;;;;;;;22.65;7.28;;;;;;;13.77;52.60;96372.25;5030361;28;20036;-78
2022/10/27 08:42:58;;;;;;;26.75;8.93;;;;;;;14.22;52.55;96430.19;4999757;28;20432;-83
2022/10/27 08:45:31;;;;;;;17.88;7.45;;;;;;;13.68;52.84;96339.19;5026377;28;20048;-79
2022/10/27 08:47:59;;;;;;;16.83;8.45;;;;;;;14.35;52.25;96428.84;5032810;28;20592;-78
2022/10/27 08:50:28;;;;;;;23.75;9.10;;;;;;;14.34;52.09;96404.06;5013369;28;20823;-78
2022/10/27 08:52:58;;;;;;;23.30;8.48;;;;;;;14.49;51.95;96419.31;5027697;28;20041;-79
2022/10/27 08:55:46;;;;;;;22.38;9.60;;;;;;;14.14;51.94;96359.50;5009343;28;20160;-79
2022/10/27 08:58:32;;;;;;;27.35;9.95;;;;;;;14.34;51.66;96363.25;5029158;28;20048;-79
2022/10/27 09:01:26;;;;;;;32.08;9.75;;;;;;;14.79;51.08;96416.59;5023872;28;20489;-78
2022/10/27 09:04:10;;;;;;;31.08;9.15;;;;;;;14.81;51.12;96417.13;4999280;28;20049;-78
2022/10/27 09:06:46;;;;;;;19.88;8.45;;;;;;;14.48;50.51;96348.31;4999024;28;20108;-78
2022/10/27 09:09:23;;;;;;;24.48;8.98;;;;;;;14.98;50.29;96417.63;4992867;28;20172;-79
2022/10/27 09:11:58;;;;;;;16.08;7.80;;;;;;;15.03;49.95;96414.13;5005175;28;20052;-78
2022/10/27 09:14:44;;;;;;;27.67;8.93;;;;;;;15.12;50.04;96414.38;4986183;28;20157;-80
2022/10/27 09:17:26;;;;;;;20.42;8.68;;;;;;;14.28;50.21;96279.69;4997989;28;20651;-77
2022/10/27 09:20:24;;;;;;;19.40;8.23;;;;;;;15.15;49.81;96419.19;4997714;28;20041;-79
2022/10/27 09:22:53;;;;;;;19.02;6.95;;;;;;;14.58;49.87;96306.34;5001119;28;20918;-80
2022/10/27 09:25:21;;;;;;;15.32;7.00;;;;;;;15.02;49.87;96361.78;5005872;28;20138;-78
2022/10/27 09:27:55;;;;;;;25.00;9.50;;;;;;;14.32;49.29;96248.75;4999972;28;20053;-79
2022/10/27 09:30:20;;;;;;;24.77;7.60;;;;;;;15.43;49.19;96405.97;4995262;28;20184;-80
2022/10/27 09:32:52;;;;;;;18.73;6.93;;;;;;;15.02;48.91;96327.06;5012693;28;20128;-79
2022/10/27 09:35:23;;;;;;;18.67;6.85;;;;;;;15.41;48.70;96388.59;5013691;28;20325;-79
2022/10/27 09:37:48;;;;;;;17.95;6.57;;;;;;;15.20;48.53;96330.97;5008605;28;20574;-77
2022/10/27 09:40:20;;;;;;;21.75;7.60;;;;;;;15.73;48.26;96396.22;5011562;28;20033;-78
2022/10/27 09:42:49;;;;;;;14.80;6.40;;;;;;;15.57;48.48;96371.44;5015196;28;20053;-76
2022/10/27 09:45:20;;;;;;;18.40;6.55;;;;;;;15.80;47.86;96391.38;5007541;28;20045;-76
2022/10/27 09:47:53;;;;;;;15.38;6.15;;;;;;;15.89;48.41;96391.59;4994723;28;20045;-77
2022/10/27 09:50:23;;;;;;;15.85;5.65;;;;;;;15.83;47.49;96350.72;4980616;28;20049;-77
2022/10/27 09:52:49;;;;;;;15.43;6.28;;;;;;;16.95;46.09;96382.69;5012622;28;20072;-77
2022/10/27 09:55:16;;;;;;;12.45;5.85;;;;;;;17.82;43.54;96307.34;5000092;28;20053;-79
2022/10/27 09:57:43;;;;;;;19.10;6.00;;;;;;;19.39;40.39;96339.44;5011838;28;20041;-78
2022/10/27 10:00:08;;;;;;;16.67;6.18;;;;;;;21.08;37.98;96376.38;5011662;28;20555;-77
2022/10/27 10:02:39;;;;;;;18.27;6.35;;;;;;;21.95;35.11;96321.53;4994921;28;20156;-79
2022/10/27 10:05:18;;;;;;;14.25;5.68;;;;;;;23.28;32.94;96340.31;5006477;28;20045;-78
2022/10/27 10:07:45;;;;;;;17.67;5.63;;;;;;;24.24;31.51;96309.59;4999329;28;20038;-79
2022/10/27 10:10:23;;;;;;;16.92;6.47;;;;;;;25.50;30.00;96365.78;4988295;28;20049;-77
2022/10/27 10:13:00;;;;;;;14.82;6.00;;;;;;;26.04;28.81;96363.56;5012969;28;20056;-80
2022/10/27 10:15:27;;;;;;;17.48;5.85;;;;;;;26.10;28.27;96310.53;5017966;28;20037;-82
2022/10/27 10:18:00;;;;;;;10.10;5.95;;;;;;;26.52;27.53;96364.56;5017372;28;20037;-80
2022/10/27 10:20:38;;;;;;;11.55;5.10;;;;;;;25.86;27.26;96245.41;5008917;28;20053;-79
2022/10/27 10:23:18;;;;;;;12.85;5.50;;;;;;;26.34;27.52;96357.84;5014597;28;20144;-79
2022/10/27 10:25:47;;;;;;;10.55;4.45;;;;;;;26.13;27.48;96358.78;4998257;28;20460;-80
2022/10/27 10:28:21;;;;;;;11.30;4.22;;;;;;;25.97;27.78;96355.22;5010805;28;20685;-80
2022/10/27 10:30:55;;;;;;;16.65;5.18;;;;;;;25.57;28.03;96359.75;5007908;28;20046;-81
2022/10/27 10:33:26;;;;;;;17.75;5.35;;;;;;;25.51;28.49;96353.78;5013714;28;20539;-78
2022/10/27 10:35:51;;;;;;;13.73;5.00;;;;;;;25.29;28.88;96303.44;5019440;28;20045;-78
2022/10/27 10:38:23;;;;;;;9.82;4.70;;;;;;;25.62;28.24;96348.72;4996869;28;20053;-78
2022/10/27 10:41:12;;;;;;;9.50;4.15;;;;;;;25.43;28.76;96351.97;4997925;28;20974;-77
2022/10/27 10:43:40;;;;;;;11.82;3.95;;;;;;;25.34;27.78;96313.28;5000853;28;20056;-79
2022/10/27 10:46:24;;;;;;;13.63;4.25;;;;;;;25.35;27.70;96299.38;5001393;28;20160;-80
2022/10/27 10:48:55;;;;;;;7.53;3.95;;;;;;;25.65;26.96;96343.38;5018163;28;20041;-79
2022/10/27 10:51:26;;;;;;;11.73;4.15;;;;;;;25.58;27.16;96340.44;5011920;28;20046;-79
2022/10/27 10:53:58;;;;;;;8.65;4.05;;;;;;;25.54;27.52;96334.09;5000445;28;20042;-78
2022/10/27 10:56:26;;;;;;;10.43;3.10;;;;;;;25.49;26.91;96336.22;5020694;28;20041;-81
2022/10/27 10:59:14;;;;;;;8.70;2.50;;;;;;;25.10;25.09;96294.31;5021161;28;20049;-78
2022/10/27 11:02:18;;;;;;;6.55;2.17;;;;;;;24.76;25.57;96292.75;5026139;28;20128;-79
2022/10/27 11:04:46;;;;;;;6.93;2.80;;;;;;;24.95;25.88;96326.38;5019507;28;20052;-79
2022/10/27 11:07:31;;;;;;;5.72;2.83;;;;;;;24.16;26.07;96227.19;5020320;28;20037;-79
2022/10/27 11:10:09;;;;;;;6.47;2.80;;;;;;;24.14;26.08;96201.56;5022927;28;20072;-80
2022/10/27 11:12:38;;;;;;;8.18;2.83;;;;;;;24.88;25.82;96325.31;5025899;28;20040;-80
2022/10/27 11:15:26;;;;;;;9.75;2.83;;;;;;;25.11;26.07;96321.09;5014973;28;20453;-82
2022/10/27 11:17:56;;;;;;;7.68;3.05;;;;;;;25.17;25.39;96306.19;5029107;28;20958;-80
2022/10/27 11:20:29;;;;;;;5.22;2.72;;;;;;;25.22;25.18;96310.56;5027513;28;20033;-78
2022/10/27 11:22:57;;;;;;;5.30;2.20;;;;;;;25.47;24.38;96309.44;5027546;28;20117;-77
2022/10/27 11:25:27;;;;;;;5.40;1.85;;;;;;;25.44;24.43;96317.47;5034142;28;20080;-79
2022/10/27 11:28:35;;;;;;;9.15;2.72;;;;;;;25.53;25.10;96301.84;5030119;28;20041;-77
2022/10/27 11:31:16;;;;;;;5.75;2.15;;;;;;;25.63;24.19;96279.69;5033266;28;20067;-79
2022/10/27 11:34:04;;;;;;;7.25;2.10;;;;;;;25.80;23.88;96308.47;5032370;28;20053;-78